Current Weather

Sussex

Sussex, New Jersey (KFWN)

Report from: Monday, June 17, 2024 6:53 AM EDT
Current time: Monday, June 17, 2024 7:12 AM EDT

Nearby weather – Weather history – Daily summaries
Weather forecast

Temperature15.0°C (59.0°F)
Dew point13.9°C (57.0°F)
Winds Calm
Visibility10 mi. (16.1 km)
Clouds Ceiling: Overcast 7,000 ft. (2,134 m)
Altimeter30.21 in.Hg (1023 mB)
Relative humidity93 %
Density altitude-102 ft. (-31 m)
Sea-level pressure102.3 kPa (1023 mB, 30.20 in.Hg)
Remarks Fully automated report
Automated weather observing station with precipitation discriminator
Flight conditions Visual Meteorological Conditions
Raw dataKFWN 171053Z AUTO 00000KT 10SM OVC070 15/14 A3021 RMK AO2 SLP228 T01500139
An error has occurred. This application may no longer respond until reloaded. Reload 🗙